sensor_id;sensor_type;location;lat;lon;timestamp;temperature;humidity
42715;DHT22;28351;51.480;5.706;2022-07-18T00:01:43;16.90;99.90
42715;DHT22;28351;51.480;5.706;2022-07-18T00:04:08;16.70;99.90
42715;DHT22;28351;51.480;5.706;2022-07-18T00:06:34;16.60;99.90
42715;DHT22;28351;51.480;5.706;2022-07-18T00:09:00;16.50;99.90
42715;DHT22;28351;51.480;5.706;2022-07-18T00:11:26;16.30;99.90
42715;DHT22;28351;51.480;5.706;2022-07-18T00:13:52;16.30;99.90
42715;DHT22;28351;51.480;5.706;2022-07-18T00:16:18;16.20;99.90
42715;DHT22;28351;51.480;5.706;2022-07-18T00:18:44;16.10;99.90
42715;DHT22;28351;51.480;5.706;2022-07-18T00:21:09;16.10;99.90
42715;DHT22;28351;51.480;5.706;2022-07-18T00:23:35;16.00;99.90
42715;DHT22;28351;51.480;5.706;2022-07-18T00:26:01;15.90;99.90
42715;DHT22;28351;51.480;5.706;2022-07-18T00:28:27;15.90;99.90
42715;DHT22;28351;51.480;5.706;2022-07-18T00:30:53;15.80;99.90
42715;DHT22;28351;51.480;5.706;2022-07-18T00:33:18;15.70;99.90
42715;DHT22;28351;51.480;5.706;2022-07-18T00:35:44;15.70;99.90
42715;DHT22;28351;51.480;5.706;2022-07-18T00:38:09;15.70;99.90
42715;DHT22;28351;51.480;5.706;2022-07-18T00:40:35;15.70;99.90
42715;DHT22;28351;51.480;5.706;2022-07-18T00:43:01;15.70;99.90
42715;DHT22;28351;51.480;5.706;2022-07-18T00:45:27;15.60;99.90
42715;DHT22;28351;51.480;5.706;2022-07-18T00:47:52;15.60;99.90
42715;DHT22;28351;51.480;5.706;2022-07-18T00:50:23;15.60;99.90
42715;DHT22;28351;51.480;5.706;2022-07-18T00:52:48;15.60;99.90
42715;DHT22;28351;51.480;5.706;2022-07-18T00:55:15;15.60;99.90
42715;DHT22;28351;51.480;5.706;2022-07-18T00:57:42;15.60;99.90
42715;DHT22;28351;51.480;5.706;2022-07-18T01:00:13;15.60;99.90
42715;DHT22;28351;51.480;5.706;2022-07-18T01:02:57;15.60;99.90
42715;DHT22;28351;51.480;5.706;2022-07-18T01:05:23;15.60;99.90
42715;DHT22;28351;51.480;5.706;2022-07-18T01:07:52;15.60;99.90
42715;DHT22;28351;51.480;5.706;2022-07-18T01:10:18;15.50;99.90
42715;DHT22;28351;51.480;5.706;2022-07-18T01:12:45;15.50;99.90
42715;DHT22;28351;51.480;5.706;2022-07-18T01:15:11;15.40;99.90
42715;DHT22;28351;51.480;5.706;2022-07-18T01:17:40;15.40;99.90
42715;DHT22;28351;51.480;5.706;2022-07-18T01:20:05;15.30;99.90
42715;DHT22;28351;51.480;5.706;2022-07-18T01:22:31;15.40;99.90
42715;DHT22;28351;51.480;5.706;2022-07-18T01:24:57;15.40;99.90
42715;DHT22;28351;51.480;5.706;2022-07-18T01:27:23;15.30;99.90
42715;DHT22;28351;51.480;5.706;2022-07-18T01:29:50;15.20;99.90
42715;DHT22;28351;51.480;5.706;2022-07-18T01:32:17;15.20;99.90
42715;DHT22;28351;51.480;5.706;2022-07-18T01:34:43;15.10;99.90
42715;DHT22;28351;51.480;5.706;2022-07-18T01:37:10;15.20;99.90
42715;DHT22;28351;51.480;5.706;2022-07-18T01:39:35;15.10;99.90
42715;DHT22;28351;51.480;5.706;2022-07-18T01:42:06;15.00;99.90
42715;DHT22;28351;51.480;5.706;2022-07-18T01:44:33;15.00;99.90
42715;DHT22;28351;51.480;5.706;2022-07-18T01:47:00;15.00;99.90
42715;DHT22;28351;51.480;5.706;2022-07-18T01:49:26;15.00;99.90
42715;DHT22;28351;51.480;5.706;2022-07-18T01:52:01;15.00;99.90
42715;DHT22;28351;51.480;5.706;2022-07-18T01:54:29;15.00;99.90
42715;DHT22;28351;51.480;5.706;2022-07-18T01:56:58;15.10;99.90
42715;DHT22;28351;51.480;5.706;2022-07-18T01:59:24;15.00;99.90
42715;DHT22;28351;51.480;5.706;2022-07-18T02:01:50;14.90;99.90
42715;DHT22;28351;51.480;5.706;2022-07-18T02:04:16;14.90;99.90
42715;DHT22;28351;51.480;5.706;2022-07-18T02:06:42;14.90;99.90
42715;DHT22;28351;51.480;5.706;2022-07-18T02:09:10;14.80;99.90
42715;DHT22;28351;51.480;5.706;2022-07-18T02:11:36;14.80;99.90
42715;DHT22;28351;51.480;5.706;2022-07-18T02:14:03;14.70;99.90
42715;DHT22;28351;51.480;5.706;2022-07-18T02:16:29;14.70;99.90
42715;DHT22;28351;51.480;5.706;2022-07-18T02:18:55;14.70;99.90
42715;DHT22;28351;51.480;5.706;2022-07-18T02:21:21;14.70;99.90
42715;DHT22;28351;51.480;5.706;2022-07-18T02:23:47;14.70;99.90
42715;DHT22;28351;51.480;5.706;2022-07-18T02:26:12;14.70;99.90
42715;DHT22;28351;51.480;5.706;2022-07-18T02:28:38;14.70;99.90
42715;DHT22;28351;51.480;5.706;2022-07-18T02:31:08;14.70;99.90
42715;DHT22;28351;51.480;5.706;2022-07-18T02:33:34;14.60;99.90
42715;DHT22;28351;51.480;5.706;2022-07-18T02:36:00;14.60;99.90
42715;DHT22;28351;51.480;5.706;2022-07-18T02:38:26;14.60;99.90
42715;DHT22;28351;51.480;5.706;2022-07-18T02:40:51;14.50;99.90
42715;DHT22;28351;51.480;5.706;2022-07-18T02:43:17;14.60;99.90
42715;DHT22;28351;51.480;5.706;2022-07-18T02:45:42;14.50;99.90
42715;DHT22;28351;51.480;5.706;2022-07-18T02:48:08;14.50;99.90
42715;DHT22;28351;51.480;5.706;2022-07-18T02:50:34;14.40;99.90
42715;DHT22;28351;51.480;5.706;2022-07-18T02:53:00;14.40;99.90
42715;DHT22;28351;51.480;5.706;2022-07-18T02:55:25;14.40;99.90
42715;DHT22;28351;51.480;5.706;2022-07-18T02:57:51;14.40;99.90
42715;DHT22;28351;51.480;5.706;2022-07-18T03:00:17;14.40;99.90
42715;DHT22;28351;51.480;5.706;2022-07-18T03:02:44;14.40;99.90
42715;DHT22;28351;51.480;5.706;2022-07-18T03:05:10;14.40;99.90
42715;DHT22;28351;51.480;5.706;2022-07-18T03:07:36;14.30;99.90
42715;DHT22;28351;51.480;5.706;2022-07-18T03:10:02;14.30;99.90
42715;DHT22;28351;51.480;5.706;2022-07-18T03:12:31;14.20;99.90
42715;DHT22;28351;51.480;5.706;2022-07-18T03:14:57;14.20;99.90
42715;DHT22;28351;51.480;5.706;2022-07-18T03:17:22;14.10;99.90
42715;DHT22;28351;51.480;5.706;2022-07-18T03:19:48;14.10;99.90
42715;DHT22;28351;51.480;5.706;2022-07-18T03:22:13;14.00;99.90
42715;DHT22;28351;51.480;5.706;2022-07-18T03:24:39;14.00;99.90
42715;DHT22;28351;51.480;5.706;2022-07-18T03:27:05;14.00;99.90
42715;DHT22;28351;51.480;5.706;2022-07-18T03:29:30;14.00;99.90
42715;DHT22;28351;51.480;5.706;2022-07-18T03:31:56;14.00;99.90
42715;DHT22;28351;51.480;5.706;2022-07-18T03:34:21;13.90;99.90
42715;DHT22;28351;51.480;5.706;2022-07-18T03:36:47;13.80;99.90
42715;DHT22;28351;51.480;5.706;2022-07-18T03:39:13;13.80;99.90
42715;DHT22;28351;51.480;5.706;2022-07-18T03:41:39;13.80;99.90
42715;DHT22;28351;51.480;5.706;2022-07-18T03:44:05;13.80;99.90
42715;DHT22;28351;51.480;5.706;2022-07-18T03:46:31;13.80;99.90
42715;DHT22;28351;51.480;5.706;2022-07-18T03:48:57;13.80;99.90
42715;DHT22;28351;51.480;5.706;2022-07-18T03:51:23;13.80;99.90
42715;DHT22;28351;51.480;5.706;2022-07-18T03:53:49;13.80;99.90
42715;DHT22;28351;51.480;5.706;2022-07-18T03:56:15;13.80;99.90
42715;DHT22;28351;51.480;5.706;2022-07-18T03:58:41;13.80;99.90
42715;DHT22;28351;51.480;5.706;2022-07-18T04:01:07;13.80;99.90
42715;DHT22;28351;51.480;5.706;2022-07-18T04:03:32;13.80;99.90
42715;DHT22;28351;51.480;5.706;2022-07-18T04:05:58;13.70;99.90
42715;DHT22;28351;51.480;5.706;2022-07-18T04:08:24;13.70;99.90
42715;DHT22;28351;51.480;5.706;2022-07-18T04:10:50;13.70;99.90
42715;DHT22;28351;51.480;5.706;2022-07-18T04:13:15;13.70;99.90
42715;DHT22;28351;51.480;5.706;2022-07-18T04:15:41;13.70;99.90
42715;DHT22;28351;51.480;5.706;2022-07-18T04:18:09;13.70;99.90
42715;DHT22;28351;51.480;5.706;2022-07-18T04:20:36;13.70;99.90
42715;DHT22;28351;51.480;5.706;2022-07-18T04:23:04;13.70;99.90
42715;DHT22;28351;51.480;5.706;2022-07-18T04:25:40;13.70;99.90
42715;DHT22;28351;51.480;5.706;2022-07-18T04:28:08;13.80;99.90
42715;DHT22;28351;51.480;5.706;2022-07-18T04:30:34;13.80;99.90
42715;DHT22;28351;51.480;5.706;2022-07-18T04:33:05;13.90;99.90
42715;DHT22;28351;51.480;5.706;2022-07-18T04:35:31;14.00;99.90
42715;DHT22;28351;51.480;5.706;2022-07-18T04:37:57;14.00;99.90
42715;DHT22;28351;51.480;5.706;2022-07-18T04:40:23;14.10;99.90
42715;DHT22;28351;51.480;5.706;2022-07-18T04:42:49;14.10;99.90
42715;DHT22;28351;51.480;5.706;2022-07-18T04:45:15;14.10;99.90
42715;DHT22;28351;51.480;5.706;2022-07-18T04:47:41;14.20;99.90
42715;DHT22;28351;51.480;5.706;2022-07-18T04:50:07;14.30;99.90
42715;DHT22;28351;51.480;5.706;2022-07-18T04:52:41;14.30;99.90
42715;DHT22;28351;51.480;5.706;2022-07-18T04:55:08;14.40;99.90
42715;DHT22;28351;51.480;5.706;2022-07-18T04:57:35;14.40;99.90
42715;DHT22;28351;51.480;5.706;2022-07-18T05:00:05;14.50;99.90
42715;DHT22;28351;51.480;5.706;2022-07-18T05:02:31;14.50;99.90
42715;DHT22;28351;51.480;5.706;2022-07-18T05:04:57;14.60;99.90
42715;DHT22;28351;51.480;5.706;2022-07-18T05:07:22;14.70;99.90
42715;DHT22;28351;51.480;5.706;2022-07-18T05:09:48;14.70;99.90
42715;DHT22;28351;51.480;5.706;2022-07-18T05:12:14;14.80;99.90
42715;DHT22;28351;51.480;5.706;2022-07-18T05:14:39;14.80;99.90
42715;DHT22;28351;51.480;5.706;2022-07-18T05:17:05;14.90;99.90
42715;DHT22;28351;51.480;5.706;2022-07-18T05:19:30;15.00;99.90
42715;DHT22;28351;51.480;5.706;2022-07-18T05:21:56;15.00;99.90
42715;DHT22;28351;51.480;5.706;2022-07-18T05:24:22;15.20;99.90
42715;DHT22;28351;51.480;5.706;2022-07-18T05:26:47;15.30;99.90
42715;DHT22;28351;51.480;5.706;2022-07-18T05:29:13;15.40;99.90
42715;DHT22;28351;51.480;5.706;2022-07-18T05:31:40;15.50;99.90
42715;DHT22;28351;51.480;5.706;2022-07-18T05:34:06;15.60;99.90
42715;DHT22;28351;51.480;5.706;2022-07-18T05:36:31;15.70;99.90
42715;DHT22;28351;51.480;5.706;2022-07-18T05:38:57;15.90;99.90
42715;DHT22;28351;51.480;5.706;2022-07-18T05:41:22;16.00;99.90
42715;DHT22;28351;51.480;5.706;2022-07-18T05:43:48;16.20;99.90
42715;DHT22;28351;51.480;5.706;2022-07-18T05:46:13;16.30;99.90
42715;DHT22;28351;51.480;5.706;2022-07-18T05:48:39;16.50;99.90
42715;DHT22;28351;51.480;5.706;2022-07-18T05:51:06;16.70;99.90
42715;DHT22;28351;51.480;5.706;2022-07-18T05:53:32;16.90;99.90
42715;DHT22;28351;51.480;5.706;2022-07-18T05:55:58;17.00;99.90
42715;DHT22;28351;51.480;5.706;2022-07-18T05:58:24;17.20;99.90
42715;DHT22;28351;51.480;5.706;2022-07-18T06:00:49;17.30;99.90
42715;DHT22;28351;51.480;5.706;2022-07-18T06:03:15;17.50;99.90
42715;DHT22;28351;51.480;5.706;2022-07-18T06:05:40;17.60;99.90
42715;DHT22;28351;51.480;5.706;2022-07-18T06:08:06;17.80;99.90
42715;DHT22;28351;51.480;5.706;2022-07-18T06:10:32;18.00;99.90
42715;DHT22;28351;51.480;5.706;2022-07-18T06:12:57;18.10;99.90
42715;DHT22;28351;51.480;5.706;2022-07-18T06:15:23;18.20;99.90
42715;DHT22;28351;51.480;5.706;2022-07-18T06:17:50;18.20;99.90
42715;DHT22;28351;51.480;5.706;2022-07-18T06:20:16;18.20;99.90
42715;DHT22;28351;51.480;5.706;2022-07-18T06:22:45;18.30;99.90
42715;DHT22;28351;51.480;5.706;2022-07-18T06:25:12;18.30;99.90
42715;DHT22;28351;51.480;5.706;2022-07-18T06:27:38;18.50;99.90
42715;DHT22;28351;51.480;5.706;2022-07-18T06:30:04;18.80;99.90
42715;DHT22;28351;51.480;5.706;2022-07-18T06:32:31;18.90;99.90
42715;DHT22;28351;51.480;5.706;2022-07-18T06:34:56;19.10;99.90
42715;DHT22;28351;51.480;5.706;2022-07-18T06:37:22;19.40;99.90
42715;DHT22;28351;51.480;5.706;2022-07-18T06:39:48;19.50;99.90
42715;DHT22;28351;51.480;5.706;2022-07-18T06:42:13;19.70;99.90
42715;DHT22;28351;51.480;5.706;2022-07-18T06:44:39;19.80;99.90
42715;DHT22;28351;51.480;5.706;2022-07-18T06:47:04;19.90;99.90
42715;DHT22;28351;51.480;5.706;2022-07-18T06:49:30;20.00;99.90
42715;DHT22;28351;51.480;5.706;2022-07-18T06:51:56;20.20;99.90
42715;DHT22;28351;51.480;5.706;2022-07-18T06:54:22;20.30;99.90
42715;DHT22;28351;51.480;5.706;2022-07-18T06:56:53;20.50;99.90
42715;DHT22;28351;51.480;5.706;2022-07-18T06:59:19;20.60;99.90
42715;DHT22;28351;51.480;5.706;2022-07-18T07:01:45;20.70;99.90
42715;DHT22;28351;51.480;5.706;2022-07-18T07:04:10;20.80;99.90
42715;DHT22;28351;51.480;5.706;2022-07-18T07:06:36;20.80;99.90
42715;DHT22;28351;51.480;5.706;2022-07-18T07:09:04;20.90;99.90
42715;DHT22;28351;51.480;5.706;2022-07-18T07:11:29;21.00;99.90
42715;DHT22;28351;51.480;5.706;2022-07-18T07:13:55;21.10;99.90
42715;DHT22;28351;51.480;5.706;2022-07-18T07:16:21;21.20;99.90
42715;DHT22;28351;51.480;5.706;2022-07-18T07:18:46;21.40;99.90
42715;DHT22;28351;51.480;5.706;2022-07-18T07:21:12;21.50;99.90
42715;DHT22;28351;51.480;5.706;2022-07-18T07:23:37;21.70;99.90
42715;DHT22;28351;51.480;5.706;2022-07-18T07:26:03;21.90;99.90
42715;DHT22;28351;51.480;5.706;2022-07-18T07:28:30;22.10;99.90
42715;DHT22;28351;51.480;5.706;2022-07-18T07:30:55;22.30;99.90
42715;DHT22;28351;51.480;5.706;2022-07-18T07:33:24;22.40;99.90
42715;DHT22;28351;51.480;5.706;2022-07-18T07:35:55;22.50;99.90
42715;DHT22;28351;51.480;5.706;2022-07-18T07:38:21;22.60;99.90
42715;DHT22;28351;51.480;5.706;2022-07-18T07:40:53;22.70;99.90
42715;DHT22;28351;51.480;5.706;2022-07-18T07:43:19;22.80;99.90
42715;DHT22;28351;51.480;5.706;2022-07-18T07:45:49;22.80;99.90
42715;DHT22;28351;51.480;5.706;2022-07-18T07:48:16;22.80;99.90
42715;DHT22;28351;51.480;5.706;2022-07-18T07:50:43;23.00;99.90
42715;DHT22;28351;51.480;5.706;2022-07-18T07:53:09;23.20;99.90
42715;DHT22;28351;51.480;5.706;2022-07-18T07:55:34;23.30;99.20
42715;DHT22;28351;51.480;5.706;2022-07-18T07:58:00;23.40;99.40
42715;DHT22;28351;51.480;5.706;2022-07-18T08:00:26;23.60;99.50
42715;DHT22;28351;51.480;5.706;2022-07-18T08:03:01;23.70;99.10
42715;DHT22;28351;51.480;5.706;2022-07-18T08:05:30;23.90;98.90
42715;DHT22;28351;51.480;5.706;2022-07-18T08:07:57;24.00;98.60
42715;DHT22;28351;51.480;5.706;2022-07-18T08:10:23;24.20;97.90
42715;DHT22;28351;51.480;5.706;2022-07-18T08:12:49;24.30;98.30
42715;DHT22;28351;51.480;5.706;2022-07-18T08:15:14;24.50;98.40
42715;DHT22;28351;51.480;5.706;2022-07-18T08:17:40;24.60;97.90
42715;DHT22;28351;51.480;5.706;2022-07-18T08:20:07;24.70;97.40
42715;DHT22;28351;51.480;5.706;2022-07-18T08:22:35;24.90;97.70
42715;DHT22;28351;51.480;5.706;2022-07-18T08:25:02;25.10;97.50
42715;DHT22;28351;51.480;5.706;2022-07-18T08:27:28;25.20;97.30
42715;DHT22;28351;51.480;5.706;2022-07-18T08:29:53;25.20;97.30
42715;DHT22;28351;51.480;5.706;2022-07-18T08:32:21;25.40;96.90
42715;DHT22;28351;51.480;5.706;2022-07-18T08:34:47;25.50;96.60
42715;DHT22;28351;51.480;5.706;2022-07-18T08:37:13;25.50;97.10
42715;DHT22;28351;51.480;5.706;2022-07-18T08:39:38;25.60;97.00
42715;DHT22;28351;51.480;5.706;2022-07-18T08:42:05;25.70;96.90
42715;DHT22;28351;51.480;5.706;2022-07-18T08:44:32;25.70;96.80
42715;DHT22;28351;51.480;5.706;2022-07-18T08:47:00;25.90;96.80
42715;DHT22;28351;51.480;5.706;2022-07-18T08:49:26;26.00;95.90
42715;DHT22;28351;51.480;5.706;2022-07-18T08:51:52;26.10;95.50
42715;DHT22;28351;51.480;5.706;2022-07-18T08:54:18;26.10;95.60
42715;DHT22;28351;51.480;5.706;2022-07-18T08:56:44;26.30;95.90
42715;DHT22;28351;51.480;5.706;2022-07-18T08:59:10;26.50;95.70
42715;DHT22;28351;51.480;5.706;2022-07-18T09:01:35;26.50;94.00
42715;DHT22;28351;51.480;5.706;2022-07-18T09:04:01;26.50;93.80
42715;DHT22;28351;51.480;5.706;2022-07-18T09:06:50;26.70;93.60
42715;DHT22;28351;51.480;5.706;2022-07-18T09:09:18;27.00;92.80
42715;DHT22;28351;51.480;5.706;2022-07-18T09:11:57;27.10;92.70
42715;DHT22;28351;51.480;5.706;2022-07-18T09:14:42;27.10;92.30
42715;DHT22;28351;51.480;5.706;2022-07-18T09:17:21;27.20;92.10
42715;DHT22;28351;51.480;5.706;2022-07-18T09:22:24;27.40;91.70
42715;DHT22;28351;51.480;5.706;2022-07-18T09:25:01;27.50;91.30
42715;DHT22;28351;51.480;5.706;2022-07-18T09:30:16;27.90;92.10
42715;DHT22;28351;51.480;5.706;2022-07-18T09:32:48;28.10;91.30
42715;DHT22;28351;51.480;5.706;2022-07-18T09:35:17;28.10;91.20
42715;DHT22;28351;51.480;5.706;2022-07-18T09:37:57;28.20;91.10
42715;DHT22;28351;51.480;5.706;2022-07-18T09:40:29;28.40;91.10
42715;DHT22;28351;51.480;5.706;2022-07-18T09:42:58;28.60;91.00
42715;DHT22;28351;51.480;5.706;2022-07-18T09:45:42;28.80;90.70
42715;DHT22;28351;51.480;5.706;2022-07-18T09:48:15;29.10;90.70
42715;DHT22;28351;51.480;5.706;2022-07-18T09:50:54;29.20;89.80
42715;DHT22;28351;51.480;5.706;2022-07-18T09:53:25;29.30;90.40
42715;DHT22;28351;51.480;5.706;2022-07-18T09:55:57;29.20;90.20
42715;DHT22;28351;51.480;5.706;2022-07-18T09:58:28;29.20;90.00
42715;DHT22;28351;51.480;5.706;2022-07-18T10:00:55;29.30;89.90
42715;DHT22;28351;51.480;5.706;2022-07-18T10:03:22;29.40;90.30
42715;DHT22;28351;51.480;5.706;2022-07-18T10:05:50;29.50;90.10
42715;DHT22;28351;51.480;5.706;2022-07-18T10:08:18;29.80;90.00
42715;DHT22;28351;51.480;5.706;2022-07-18T10:10:45;29.90;90.10
42715;DHT22;28351;51.480;5.706;2022-07-18T10:13:12;29.90;88.70
42715;DHT22;28351;51.480;5.706;2022-07-18T10:15:40;29.80;89.10
42715;DHT22;28351;51.480;5.706;2022-07-18T10:18:08;30.00;88.80
42715;DHT22;28351;51.480;5.706;2022-07-18T10:20:41;30.20;90.00
42715;DHT22;28351;51.480;5.706;2022-07-18T10:23:21;30.50;89.20
42715;DHT22;28351;51.480;5.706;2022-07-18T10:26:14;30.50;87.80
42715;DHT22;28351;51.480;5.706;2022-07-18T10:31:37;30.60;87.60
42715;DHT22;28351;51.480;5.706;2022-07-18T10:34:11;30.70;86.70
42715;DHT22;28351;51.480;5.706;2022-07-18T10:37:07;31.10;87.50
42715;DHT22;28351;51.480;5.706;2022-07-18T10:39:36;31.10;85.60
42715;DHT22;28351;51.480;5.706;2022-07-18T10:57:38;32.70;83.50
42715;DHT22;28351;51.480;5.706;2022-07-18T11:02:44;33.20;82.90
42715;DHT22;28351;51.480;5.706;2022-07-18T11:13:22;34.10;81.90
42715;DHT22;28351;51.480;5.706;2022-07-18T11:16:04;34.30;80.60
42715;DHT22;28351;51.480;5.706;2022-07-18T11:21:30;34.30;79.70
42715;DHT22;28351;51.480;5.706;2022-07-18T11:24:10;35.20;80.00
42715;DHT22;28351;51.480;5.706;2022-07-18T11:26:47;35.70;78.40
42715;DHT22;28351;51.480;5.706;2022-07-18T11:29:16;36.40;77.50
42715;DHT22;28351;51.480;5.706;2022-07-18T11:31:46;36.00;76.80
42715;DHT22;28351;51.480;5.706;2022-07-18T11:34:12;36.80;76.80
42715;DHT22;28351;51.480;5.706;2022-07-18T11:36:39;37.30;74.40
42715;DHT22;28351;51.480;5.706;2022-07-18T11:39:06;37.70;73.40
42715;DHT22;28351;51.480;5.706;2022-07-18T11:41:32;38.40;74.10
42715;DHT22;28351;51.480;5.706;2022-07-18T11:43:58;38.50;73.00
42715;DHT22;28351;51.480;5.706;2022-07-18T11:46:26;37.80;72.50
42715;DHT22;28351;51.480;5.706;2022-07-18T11:49:00;38.40;72.00
42715;DHT22;28351;51.480;5.706;2022-07-18T11:51:43;38.20;71.90
42715;DHT22;28351;51.480;5.706;2022-07-18T11:54:10;39.60;71.50
42715;DHT22;28351;51.480;5.706;2022-07-18T11:56:53;40.00;68.90
42715;DHT22;28351;51.480;5.706;2022-07-18T11:59:19;39.50;68.80
42715;DHT22;28351;51.480;5.706;2022-07-18T12:01:45;39.50;67.10
42715;DHT22;28351;51.480;5.706;2022-07-18T12:04:21;39.00;68.10
42715;DHT22;28351;51.480;5.706;2022-07-18T12:07:19;39.60;67.30
42715;DHT22;28351;51.480;5.706;2022-07-18T12:09:49;40.00;67.50
42715;DHT22;28351;51.480;5.706;2022-07-18T12:12:17;40.40;65.60
42715;DHT22;28351;51.480;5.706;2022-07-18T12:14:53;41.30;68.20
42715;DHT22;28351;51.480;5.706;2022-07-18T12:17:18;41.70;65.70
42715;DHT22;28351;51.480;5.706;2022-07-18T12:19:44;41.10;64.30
42715;DHT22;28351;51.480;5.706;2022-07-18T12:22:11;41.10;64.10
42715;DHT22;28351;51.480;5.706;2022-07-18T12:30:10;41.30;65.20
42715;DHT22;28351;51.480;5.706;2022-07-18T12:43:33;42.60;63.40
42715;DHT22;28351;51.480;5.706;2022-07-18T12:45:57;42.20;62.80
42715;DHT22;28351;51.480;5.706;2022-07-18T12:48:23;41.80;63.00
42715;DHT22;28351;51.480;5.706;2022-07-18T12:51:00;40.90;63.00
42715;DHT22;28351;51.480;5.706;2022-07-18T12:53:28;41.50;63.10
42715;DHT22;28351;51.480;5.706;2022-07-18T12:55:54;42.70;63.70
42715;DHT22;28351;51.480;5.706;2022-07-18T12:58:20;43.50;63.20
42715;DHT22;28351;51.480;5.706;2022-07-18T13:00:46;43.40;62.20
42715;DHT22;28351;51.480;5.706;2022-07-18T13:03:12;43.50;62.50
42715;DHT22;28351;51.480;5.706;2022-07-18T13:05:38;42.80;62.00
42715;DHT22;28351;51.480;5.706;2022-07-18T13:08:04;42.10;61.90
42715;DHT22;28351;51.480;5.706;2022-07-18T13:10:32;42.20;62.30
42715;DHT22;28351;51.480;5.706;2022-07-18T13:12:57;42.60;62.70
42715;DHT22;28351;51.480;5.706;2022-07-18T13:15:23;43.50;61.30
42715;DHT22;28351;51.480;5.706;2022-07-18T13:17:49;44.70;61.90
42715;DHT22;28351;51.480;5.706;2022-07-18T13:20:15;44.30;60.10
42715;DHT22;28351;51.480;5.706;2022-07-18T13:22:41;43.70;60.80
42715;DHT22;28351;51.480;5.706;2022-07-18T13:25:08;42.90;60.20
42715;DHT22;28351;51.480;5.706;2022-07-18T13:27:35;43.00;61.20
42715;DHT22;28351;51.480;5.706;2022-07-18T13:30:06;43.70;60.60
42715;DHT22;28351;51.480;5.706;2022-07-18T13:32:32;44.70;62.50
42715;DHT22;28351;51.480;5.706;2022-07-18T13:34:58;45.30;60.80
42715;DHT22;28351;51.480;5.706;2022-07-18T13:37:23;44.40;60.90
42715;DHT22;28351;51.480;5.706;2022-07-18T13:39:49;44.30;60.30
42715;DHT22;28351;51.480;5.706;2022-07-18T13:42:15;44.10;59.80
42715;DHT22;28351;51.480;5.706;2022-07-18T13:44:41;42.90;59.70
42715;DHT22;28351;51.480;5.706;2022-07-18T13:47:06;42.90;59.40
42715;DHT22;28351;51.480;5.706;2022-07-18T13:49:32;43.40;59.50
42715;DHT22;28351;51.480;5.706;2022-07-18T13:51:58;43.80;60.20
42715;DHT22;28351;51.480;5.706;2022-07-18T13:54:23;43.90;58.80
42715;DHT22;28351;51.480;5.706;2022-07-18T13:56:49;43.70;58.90
42715;DHT22;28351;51.480;5.706;2022-07-18T13:59:15;43.50;59.20
42715;DHT22;28351;51.480;5.706;2022-07-18T14:01:41;44.00;58.90
42715;DHT22;28351;51.480;5.706;2022-07-18T14:04:07;44.10;58.60
42715;DHT22;28351;51.480;5.706;2022-07-18T14:06:33;44.90;58.70
42715;DHT22;28351;51.480;5.706;2022-07-18T14:09:01;44.00;57.70
42715;DHT22;28351;51.480;5.706;2022-07-18T14:11:26;43.60;57.70
42715;DHT22;28351;51.480;5.706;2022-07-18T14:13:52;43.30;58.90
42715;DHT22;28351;51.480;5.706;2022-07-18T14:16:18;43.00;58.00
42715;DHT22;28351;51.480;5.706;2022-07-18T14:18:43;43.60;58.70
42715;DHT22;28351;51.480;5.706;2022-07-18T14:21:09;44.50;59.20
42715;DHT22;28351;51.480;5.706;2022-07-18T14:23:34;43.80;58.80
42715;DHT22;28351;51.480;5.706;2022-07-18T14:26:00;44.80;58.60
42715;DHT22;28351;51.480;5.706;2022-07-18T14:28:25;44.20;56.40
42715;DHT22;28351;51.480;5.706;2022-07-18T14:30:51;43.90;56.40
42715;DHT22;28351;51.480;5.706;2022-07-18T14:33:17;43.90;56.70
42715;DHT22;28351;51.480;5.706;2022-07-18T14:35:42;44.70;57.90
42715;DHT22;28351;51.480;5.706;2022-07-18T14:38:08;44.60;57.80
42715;DHT22;28351;51.480;5.706;2022-07-18T14:40:34;44.20;56.10
42715;DHT22;28351;51.480;5.706;2022-07-18T14:42:59;43.40;56.10
42715;DHT22;28351;51.480;5.706;2022-07-18T14:45:25;43.60;57.20
42715;DHT22;28351;51.480;5.706;2022-07-18T14:47:50;43.70;56.70
42715;DHT22;28351;51.480;5.706;2022-07-18T14:50:16;43.90;56.60
42715;DHT22;28351;51.480;5.706;2022-07-18T14:52:42;44.40;57.60
42715;DHT22;28351;51.480;5.706;2022-07-18T14:55:08;44.20;56.40
42715;DHT22;28351;51.480;5.706;2022-07-18T14:57:34;44.20;56.60
42715;DHT22;28351;51.480;5.706;2022-07-18T14:59:59;43.70;57.00
42715;DHT22;28351;51.480;5.706;2022-07-18T15:02:25;44.20;56.20
42715;DHT22;28351;51.480;5.706;2022-07-18T15:04:51;43.80;56.70
42715;DHT22;28351;51.480;5.706;2022-07-18T15:07:16;44.10;55.70
42715;DHT22;28351;51.480;5.706;2022-07-18T15:09:42;44.50;56.00
42715;DHT22;28351;51.480;5.706;2022-07-18T15:12:08;44.50;57.30
42715;DHT22;28351;51.480;5.706;2022-07-18T15:14:34;44.30;54.50
42715;DHT22;28351;51.480;5.706;2022-07-18T15:17:00;44.00;56.30
42715;DHT22;28351;51.480;5.706;2022-07-18T15:19:26;43.70;55.20
42715;DHT22;28351;51.480;5.706;2022-07-18T15:21:51;44.00;56.30
42715;DHT22;28351;51.480;5.706;2022-07-18T15:24:17;43.50;55.70
42715;DHT22;28351;51.480;5.706;2022-07-18T15:26:43;43.70;56.00
42715;DHT22;28351;51.480;5.706;2022-07-18T15:29:11;43.60;56.30
42715;DHT22;28351;51.480;5.706;2022-07-18T15:31:36;43.30;56.00
42715;DHT22;28351;51.480;5.706;2022-07-18T15:34:02;43.30;54.90
42715;DHT22;28351;51.480;5.706;2022-07-18T15:36:28;43.40;55.10
42715;DHT22;28351;51.480;5.706;2022-07-18T15:38:53;43.40;56.00
42715;DHT22;28351;51.480;5.706;2022-07-18T15:41:19;43.60;55.60
42715;DHT22;28351;51.480;5.706;2022-07-18T15:43:46;43.60;55.80
42715;DHT22;28351;51.480;5.706;2022-07-18T15:46:12;44.10;55.80
42715;DHT22;28351;51.480;5.706;2022-07-18T15:48:42;44.30;55.20
42715;DHT22;28351;51.480;5.706;2022-07-18T15:51:08;44.30;55.10
42715;DHT22;28351;51.480;5.706;2022-07-18T15:53:33;44.10;56.20
42715;DHT22;28351;51.480;5.706;2022-07-18T15:55:59;43.80;55.30
42715;DHT22;28351;51.480;5.706;2022-07-18T15:58:25;43.90;55.60
42715;DHT22;28351;51.480;5.706;2022-07-18T16:00:50;43.20;54.70
42715;DHT22;28351;51.480;5.706;2022-07-18T16:03:16;43.30;55.20
42715;DHT22;28351;51.480;5.706;2022-07-18T16:06:08;43.60;56.00
42715;DHT22;28351;51.480;5.706;2022-07-18T16:08:33;43.70;55.20
42715;DHT22;28351;51.480;5.706;2022-07-18T16:10:59;43.50;54.90
42715;DHT22;28351;51.480;5.706;2022-07-18T16:13:25;43.40;55.30
42715;DHT22;28351;51.480;5.706;2022-07-18T16:15:50;43.70;55.80
42715;DHT22;28351;51.480;5.706;2022-07-18T16:18:16;42.70;54.90
42715;DHT22;28351;51.480;5.706;2022-07-18T16:20:41;42.60;54.60
42715;DHT22;28351;51.480;5.706;2022-07-18T16:23:07;41.90;55.00
42715;DHT22;28351;51.480;5.706;2022-07-18T16:25:33;41.20;55.70